Station: ADELAIDE WEST TERRACE

  Atmospheric Gas Attenuation - ITU Rec 676-11   --------------- db/100km ---------------
Date Time Temp RH % AH g/m3 Dew Point Wind Direction Speed kph Gust kph Barometer mB Rainfall Since 9am 24GHz 47GHz 76GHz 122GHz 134GHz 241GHz
21 18:00 14.8 69 8.74 9.2 24 39 1006.2 0 19.8 25.6 39.5 103.9 98.4 338.7
21 17:50 14.9 68 8.67 9.1 22 30 1006.2 0 19.7 25.4 39.2 103.0 97.4 335.1
21 17:40 15.2 65 8.44 8.7 19 22 1006.2 0 19.2 25.0 38.2 100.2 94.0 323.4
21 17:30 16.2 60 8.27 8.4 22 37 1005.9 0 18.8 24.4 37.0 97.2 90.7 311.8
21 17:20 16.6 57 8.05 8.1 22 33 1006 0 18.3 24.0 36.0 94.5 87.5 300.6
21 17:10 16.9 56 8.05 8.1 20 26 1005.9 0 18.3 23.9 35.9 94.1 87.1 299.5
21 17:00 17.1 55 8.01 8 20 35 1005.6 0 18.2 23.8 35.6 93.5 86.4 296.9
21 16:50 17.1 53 7.71 7.5 28 33 1005.6 0 17.6 23.3 34.5 90.5 82.7 284.1
21 16:40 17.8 52 7.89 7.8 19 26 1005.6 0 17.9 23.4 34.9 91.5 84.2 289.3
21 16:30 17.4 53 7.85 7.7 24 39 1005.4 0 17.8 23.5 34.9 91.5 84.1 288.9
21 16:20 17 54 7.81 7.6 28 35 1005.3 0 17.8 23.5 34.9 91.6 84.0 288.7
21 16:10 18 50 7.68 7.4 24 33 1005.1 0 17.5 23.0 34.0 89.1 81.4 279.6
21 16:00 18.1 50 7.72 7.5 26 44 1005 0 17.5 23.1 34.1 89.4 81.8 280.9
21 15:50 18.1 52 8.03 8.1 26 35 1005 0 18.2 23.5 35.2 92.4 85.5 294.0
21 15:40 17.4 53 7.85 7.7 28 35 1005 0 17.8 23.4 34.9 91.5 84.1 288.8
21 15:30 17.3 53 7.81 7.6 24 39 1005 0 17.8 23.4 34.8 91.2 83.7 287.5
21 15:20 17.6 54 8.1 8.2 20 24 1005.1 0 18.4 23.8 35.7 93.7 86.9 298.8
21 15:10 17.7 51 7.69 7.4 22 28 1005.1 0 17.5 23.1 34.2 89.6 81.8 281.0
21 15:00 17.7 53 8 8 19 28 1005 0 18.1 23.6 35.3 92.6 85.6 294.2
21 14:50 17.6 54 8.1 8.2 15 17 1005.2 0 18.4 23.8 35.7 93.7 86.9 298.9
21 14:40 17.4 53 7.85 7.7 26 30 1005.3 0 17.8 23.5 34.9 91.5 84.1 288.9
21 14:30 17.5 53 7.9 7.8 20 35 1005.2 0 17.9 23.5 35.0 91.9 84.6 290.7
21 14:20 17.4 53 7.85 7.7 22 28 1005.4 0 17.8 23.5 34.9 91.5 84.1 288.9
21 14:10 17.6 53 7.95 7.9 28 35 1005.3 0 18.0 23.5 35.2 92.3 85.1 292.5
21 14:00 17.5 54 8.05 8.1 24 44 1005.3 0 18.3 23.7 35.6 93.4 86.4 297.1
21 13:50 17.6 55 8.25 8.5 22 32 1005.4 0 18.7 24.0 36.3 95.3 88.8 305.4
21 13:40 17.4 53 7.85 7.7 24 30 1005.4 0 17.8 23.5 34.9 91.5 84.1 288.9
21 13:30 17.7 50 7.54 7.2 24 39 1005.2 0 17.2 22.9 33.6 88.1 80.0 274.7
21 13:20 17.7 49 7.39 6.9 26 32 1005.5 0 16.9 22.7 33.1 86.7 78.3 268.5
21 13:10 18.1 49 7.57 7.2 22 32 1005.5 0 17.2 22.9 33.6 88.0 80.0 274.7
21 13:00 18 48 7.37 6.8 28 41 1005.5 0 16.8 22.6 32.9 86.2 77.7 266.7
21 12:50 18 49 7.53 7.1 28 33 1005.7 0 17.1 22.8 33.5 87.8 79.6 273.4
21 12:40 19.1 49 8.03 8.1 20 28 1005.5 0 18.1 23.3 34.8 91.4 84.5 290.5
21 12:30 17.7 48 7.24 6.6 24 48 1005.4 0 16.5 22.5 32.6 85.3 76.5 262.2
21 12:20 17.2 48 7.03 6.1 22 28 1005.5 0 16.1 22.3 32.0 83.8 74.5 255.2
21 12:10 17.5 45 6.71 5.4 26 39 1005.5 0 15.4 21.8 30.7 80.4 70.4 241.1
21 12:00 17.9 42 6.41 4.8 35 56 1005.5 0 14.8 21.3 29.6 77.2 66.6 227.8
21 11:50 18.3 40 6.25 4.5 32 35 1005.5 0 14.4 20.9 28.9 75.4 64.5 220.3
21 11:40 18.4 39 6.13 4.2 41 52 1005.6 0 14.2 20.8 28.4 74.2 63.1 215.3
21 11:30 19 38 6.19 4.4 32 57 1005.4 0 14.3 20.7 28.4 74.2 63.3 216.0
21 11:20 18.4 37 5.82 3.5 35 50 1005.6 0 13.5 20.3 27.4 71.4 59.6 203.1
21 11:10 17.9 37 5.65 3 44 56 1005.6 0 13.2 20.2 27.0 70.3 58.1 197.7
21 11:00 18.6 36 5.73 3.3 32 52 1005.4 0 13.3 20.2 27.0 70.4 58.5 199.1
21 10:50 17.5 39 5.81 3.4 33 43 1005.5 0 13.5 20.5 27.6 72.1 60.2 204.9
21 10:40 18.4 41 6.45 4.9 26 32 1005.4 0 14.8 21.2 29.5 77.1 66.7 227.9
21 10:30 18.2 36 5.6 2.9 33 52 1005.3 0 13.1 20.1 26.7 69.6 57.3 195.0
21 10:20 17.6 35 5.25 2 43 57 1005.5 0 12.3 19.7 25.7 67.0 53.9 182.9
21 10:10 17.5 34 5.07 1.5 39 52 1005.4 0 12.0 19.5 25.2 65.5 52.0 176.1
21 10:00 17.6 34 5.1 1.6 30 46 1005.3 0 12.0 19.5 25.2 65.6 52.2 177.1
21 09:50 17 32 4.63 0.2 28 52 1005.2 0 11.1 19.0 23.9 62.0 47.5 160.4
21 09:40 17.2 34 4.98 1.2 22 30 1005.2 0 11.8 19.4 24.9 64.9 51.2 173.3
21 09:30 16.4 36 5.02 1.3 24 43 1005 0 11.9 19.6 25.3 65.9 52.1 176.5
21 09:20 16.1 37 5.07 1.4 26 35 1005.2 0 12.0 19.8 25.6 66.6 52.9 179.1
21 09:10 15.7 42 5.62 2.8 24 32 1005.3 0 13.2 20.6 27.6 71.9 59.3 201.8
21 09:00 15.4 42 5.52 2.6 20 30 1005.4 0 13.0 20.6 27.3 71.3 58.4 198.6
21 08:50 14.9 44 5.61 2.8 20 26 1005.5 0.6 13.2 20.8 27.8 72.6 59.8 203.4
21 08:40 14.1 47 5.7 3 19 26 1005.6 0.6 13.4 21.1 28.4 74.1 61.5 209.2
21 08:30 13.7 50 5.92 3.5 17 28 1005.5 0.6 13.9 21.5 29.3 76.6 64.4 219.3
21 08:20 13.1 52 5.93 3.5 17 20 1005.6 0.6 13.9 21.7 29.6 77.3 65.0 221.4
21 08:10 12.9 53 5.97 3.6 19 24 1005.6 0.6 14.0 21.8 29.8 77.9 65.6 223.6
21 08:00 12.5 53 5.83 3.2 15 22 1005.7 0.6 13.7 21.7 29.4 76.9 64.3 218.8
21 07:50 11.9 55 5.83 3.2 17 20 1005.9 0.6 13.8 21.8 29.7 77.5 64.8 220.5
21 07:40 11.7 58 6.07 3.7 11 13 1006.1 0.6 14.3 22.2 30.6 80.1 67.9 231.4
21 07:30 11.5 61 6.3 4.3 15 20 1006.1 0.6 14.8 22.6 31.6 82.6 70.9 241.9
21 07:20 11.1 64 6.45 4.6 13 19 1006.1 0.6 15.1 23.0 32.3 84.5 73.1 249.7
21 07:10 10.7 67 6.58 4.8 13 15 1006.2 0.6 15.4 23.3 33.0 86.3 75.2 256.7
21 07:00 10.5 69 6.69 5.1 15 20 1006 0.6 15.7 23.5 33.5 87.6 76.7 262.3
21 06:50 10.3 71 6.8 5.3 13 17 1006.1 0.6 15.9 23.7 34.0 89.0 78.4 267.9
21 06:40 10.1 73 6.9 5.5 11 11 1006.2 0.6 16.1 23.9 34.5 90.3 79.9 273.1
21 06:30 10.1 74 7 5.7 13 20 1006 0.6 16.3 24.1 34.8 91.3 81.1 277.6
21 06:20 10.3 74 7.09 5.9 19 20 1006 0.6 16.5 24.2 35.1 92.0 82.1 281.0
21 06:10 10.5 73 7.08 5.9 9 11 1005.9 0.6 16.5 24.1 35.0 91.7 81.8 279.8
21 06:00 11.1 71 7.15 6 11 19 1005.8 0.6 16.6 24.1 35.0 91.7 82.0 280.9
21 05:50 12 63 6.71 5.2 9 11 1005.9 0.6 15.6 23.1 32.9 86.2 75.5 258.2
21 05:40 12.1 62 6.65 5 11 11 1005.9 0.6 15.5 23.0 32.6 85.4 74.7 255.3
21 05:30 12.2 60 6.48 4.7 11 17 1005.9 0.6 15.1 22.7 32.0 83.6 72.5 247.5
21 05:20 12.4 60 6.56 4.9 13 15 1006 0.6 15.3 22.8 32.2 84.2 73.3 250.4
21 05:10 12.5 60 6.6 5 17 20 1005.9 0.6 15.4 22.8 32.3 84.5 73.7 251.8
21 04:50 12.7 60 6.68 5.1 11 15 1006 0.6 15.5 22.9 32.5 85.1 74.5 254.7
21 04:40 12.6 62 6.86 5.5 11 20 1005.9 0.6 15.9 23.2 33.2 87.0 76.8 262.8
21 04:30 12.7 62 6.9 5.6 13 20 1005.8 0.6 16.0 23.2 33.3 87.3 77.2 264.2
21 04:20 12.7 62 6.9 5.6 15 17 1005.9 0.6 16.0 23.2 33.3 87.3 77.2 264.3
21 04:10 12.5 64 7.04 5.9 7 11 1005.9 0.6 16.3 23.5 34.0 89.0 79.2 271.1
21 04:00 12.4 65 7.1 6 11 19 1005.8 0.6 16.5 23.6 34.2 89.7 80.0 274.1
21 03:50 12.5 64 7.04 5.9 11 13 1005.8 0.6 16.3 23.5 34.0 89.0 79.2 271.1
21 03:40 12.5 64 7.04 5.9 11 15 1005.9 0.6 16.3 23.5 34.0 89.0 79.2 271.1
21 03:30 12.5 64 7.04 5.9 11 19 1005.8 0.6 16.3 23.5 34.0 89.0 79.2 271.1
21 03:20 12.7 63 7.01 5.8 13 17 1005.9 0.6 16.2 23.4 33.8 88.4 78.6 269.1
21 03:10 12.7 64 7.13 6.1 11 13 1005.8 0.6 16.5 23.6 34.2 89.7 80.1 274.4
21 03:00 12.6 65 7.19 6.2 13 17 1005.7 0.6 16.6 23.7 34.5 90.4 81.0 277.3
21 02:50 12.9 63 7.1 6 13 19 1005.9 0.6 16.4 23.5 34.0 89.1 79.5 272.4
21 02:40 12.9 64 7.21 6.3 15 19 1005.9 0.6 16.7 23.7 34.4 90.3 80.9 277.2
21 02:30 12.9 64 7.21 6.3 13 20 1005.9 0.6 16.7 23.7 34.4 90.3 80.9 277.2
21 02:20 12.9 63 7.1 6 13 15 1006.2 0.6 16.4 23.5 34.0 89.2 79.6 272.4
21 02:10 13.1 60 6.85 5.5 13 17 1006.3 0.6 15.9 23.1 33.0 86.4 76.2 260.8
21 02:00 13.3 58 6.7 5.2 17 28 1006.3 0.6 15.6 22.8 32.4 84.7 74.2 253.7
21 01:50 13.4 60 6.98 5.8 19 24 1006.4 0.6 16.2 23.2 33.4 87.4 77.6 265.5
21 01:40 13.7 63 7.46 6.8 15 19 1006.6 0.6 17.2 23.9 35.1 92.0 83.3 285.6
21 01:30 13.8 64 7.63 7.1 19 28 1006.7 0.6 17.5 24.1 35.7 93.6 85.3 292.8
21 01:20 13.8 64 7.63 7.1 17 24 1006.9 0.6 17.5 24.1 35.7 93.6 85.3 292.9

Last Refresh: 21-Sep-2020 18:11:03

Most of the information presented on this site is sourced from the Bureau of Meteorology.  Copyright in all material sourced from the Bureau of Meteorology resides with the Commonwealth of Australia.